Aberdeen, SD - Weather Station Data
Daily Summary for March 13, 2018 Units:  Both    English   Metric
« Previous Day
Next Day »
Daily Weekly Monthly Yearly Custom
  High: Low: Average:
Temperature: 37.1 °F /  2.8 °C 12.0 °F /  -11.1 °C 25.5 °F /  -3.6 °C
Dew Point: 25.0 °F /  -3.9 °C 8.0 °F /  -13.3 °C 18.2 °F /  -7.7 °C
Humidity: 87% 54% 74%
Wind Speed: 7.0mph /  11.3km/h - 2.1mph /  3.4km/h
Wind Gust: 10.0mph /  16.1km/h - -
Wind- - WSW
Pressure: 30.51 in /  1033.1 hPa 30.18 in /  1021.9 hPa -
Precipitation: 0.00 in /  0 mm    
Historical Graphs
 
 
Tabular Data for March 13, 2018
Time Temperature Dew Point Pressure Wind Wind Speed Wind Gust Humidity Rainfall Rate (Hourly) solar Conditions
00:10 21.2 °F /  -6 °C 17.0 °F /  -8.3 °C 30.50in /  1032.7hPa North 2.0mph /  3.2km/h 6.0mph /  9.7km/h 82% 0.00in /  0mm 0 W/m2
00:25 20.5 °F /  -6.4 °C 16.0 °F /  -8.9 °C 30.51in /  1033.1hPa North 2.0mph /  3.2km/h 4.0mph /  6.4km/h 81% 0.00in /  0mm 0 W/m2
00:40 20.2 °F /  -6.6 °C 16.0 °F /  -8.9 °C 30.51in /  1033.1hPa North 4.0mph /  6.4km/h 6.0mph /  9.7km/h 82% 0.00in /  0mm 0 W/m2
00:55 20.0 °F /  -6.7 °C 15.0 °F /  -9.4 °C 30.51in /  1033.1hPa North 2.0mph /  3.2km/h 5.0mph /  8km/h 82% 0.00in /  0mm 0 W/m2
01:10 19.7 °F /  -6.8 °C 15.0 °F /  -9.4 °C 30.50in /  1032.7hPa North 1.0mph /  1.6km/h 4.0mph /  6.4km/h 82% 0.00in /  0mm 0 W/m2
01:25 19.4 °F /  -7 °C 15.0 °F /  -9.4 °C 30.50in /  1032.7hPa North 3.0mph /  4.8km/h 4.0mph /  6.4km/h 82% 0.00in /  0mm 0 W/m2
01:40 19.1 °F /  -7.2 °C 14.0 °F /  -10 °C 30.50in /  1032.7hPa North 1.0mph /  1.6km/h 3.0mph /  4.8km/h 81% 0.00in /  0mm 0 W/m2
01:55 18.4 °F /  -7.6 °C 14.0 °F /  -10 °C 30.50in /  1032.7hPa North 1.0mph /  1.6km/h 4.0mph /  6.4km/h 81% 0.00in /  0mm 0 W/m2
02:10 17.8 °F /  -7.9 °C 13.0 °F /  -10.6 °C 30.50in /  1032.7hPa North 2.0mph /  3.2km/h 3.0mph /  4.8km/h 81% 0.00in /  0mm 0 W/m2
02:25 17.6 °F /  -8 °C 13.0 °F /  -10.6 °C 30.50in /  1032.7hPa North 2.0mph /  3.2km/h 3.0mph /  4.8km/h 82% 0.00in /  0mm 0 W/m2
02:40 17.6 °F /  -8 °C 13.0 °F /  -10.6 °C 30.51in /  1033.1hPa North 1.0mph /  1.6km/h 5.0mph /  8km/h 82% 0.00in /  0mm 0 W/m2
02:55 17.1 °F /  -8.3 °C 13.0 °F /  -10.6 °C 30.50in /  1032.7hPa North 2.0mph /  3.2km/h 4.0mph /  6.4km/h 82% 0.00in /  0mm 0 W/m2
03:10 16.5 °F /  -8.6 °C 12.0 °F /  -11.1 °C 30.50in /  1032.7hPa North 1.0mph /  1.6km/h 5.0mph /  8km/h 82% 0.00in /  0mm 0 W/m2
03:25 16.4 °F /  -8.7 °C 12.0 °F /  -11.1 °C 30.50in /  1032.7hPa North 3.0mph /  4.8km/h 5.0mph /  8km/h 83% 0.00in /  0mm 0 W/m2
03:40 16.3 °F /  -8.7 °C 12.0 °F /  -11.1 °C 30.49in /  1032.4hPa North 1.0mph /  1.6km/h 5.0mph /  8km/h 82% 0.00in /  0mm 0 W/m2
03:55 16.0 °F /  -8.9 °C 11.0 °F /  -11.7 °C 30.49in /  1032.4hPa North 2.0mph /  3.2km/h 4.0mph /  6.4km/h 82% 0.00in /  0mm 0 W/m2
04:10 15.9 °F /  -8.9 °C 12.0 °F /  -11.1 °C 30.49in /  1032.4hPa North 2.0mph /  3.2km/h 3.0mph /  4.8km/h 83% 0.00in /  0mm 0 W/m2
04:25 15.9 °F /  -8.9 °C 12.0 °F /  -11.1 °C 30.48in /  1032.1hPa North 3.0mph /  4.8km/h 4.0mph /  6.4km/h 83% 0.00in /  0mm 0 W/m2
04:41 15.5 °F /  -9.2 °C 11.0 °F /  -11.7 °C 30.48in /  1032.1hPa Calm   3.0mph /  4.8km/h 82% 0.00in /  0mm 0 W/m2
04:56 15.3 °F /  -9.3 °C 11.0 °F /  -11.7 °C 30.48in /  1032.1hPa North 2.0mph /  3.2km/h 3.0mph /  4.8km/h 83% 0.00in /  0mm 0 W/m2
05:11 15.3 °F /  -9.3 °C 11.0 °F /  -11.7 °C 30.49in /  1032.4hPa North 1.0mph /  1.6km/h 2.0mph /  3.2km/h 83% 0.00in /  0mm 0 W/m2
05:26 15.3 °F /  -9.3 °C 11.0 °F /  -11.7 °C 30.48in /  1032.1hPa Calm   3.0mph /  4.8km/h 83% 0.00in /  0mm 0 W/m2
05:41 15.0 °F /  -9.4 °C 11.0 °F /  -11.7 °C 30.48in /  1032.1hPa Calm   2.0mph /  3.2km/h 83% 0.00in /  0mm 0 W/m2
05:56 14.8 °F /  -9.6 °C 11.0 °F /  -11.7 °C 30.48in /  1032.1hPa Calm   1.0mph /  1.6km/h 83% 0.00in /  0mm 0 W/m2
06:11 14.9 °F /  -9.5 °C 11.0 °F /  -11.7 °C 30.49in /  1032.4hPa North 1.0mph /  1.6km/h 2.0mph /  3.2km/h 84% 0.00in /  0mm 0 W/m2
06:26 14.5 °F /  -9.7 °C 10.0 °F /  -12.2 °C 30.50in /  1032.7hPa Calm   2.0mph /  3.2km/h 83% 0.00in /  0mm 0 W/m2
06:41 13.7 °F /  -10.2 °C 10.0 °F /  -12.2 °C 30.50in /  1032.7hPa Calm   1.0mph /  1.6km/h 83% 0.00in /  0mm 0 W/m2
06:56 13.4 °F /  -10.3 °C 9.0 °F /  -12.8 °C 30.50in /  1032.7hPa North 1.0mph /  1.6km/h 2.0mph /  3.2km/h 83% 0.00in /  0mm 0 W/m2
07:11 13.3 °F /  -10.4 °C 9.0 °F /  -12.8 °C 30.51in /  1033.1hPa Calm   2.0mph /  3.2km/h 83% 0.00in /  0mm 0 W/m2
07:26 13.0 °F /  -10.6 °C 9.0 °F /  -12.8 °C 30.51in /  1033.1hPa Calm     83% 0.00in /  0mm 0 W/m2
07:41 12.3 °F /  -10.9 °C 8.0 °F /  -13.3 °C 30.51in /  1033.1hPa Calm     83% 0.00in /  0mm 0 W/m2
07:56 12.0 °F /  -11.1 °C 8.0 °F /  -13.3 °C 30.51in /  1033.1hPa Calm     83% 0.00in /  0mm 7 W/m2
08:11 12.0 °F /  -11.1 °C 8.0 °F /  -13.3 °C 30.51in /  1033.1hPa Calm   1.0mph /  1.6km/h 84% 0.00in /  0mm 14 W/m2
08:26 12.3 °F /  -10.9 °C 8.0 °F /  -13.3 °C 30.51in /  1033.1hPa Calm   2.0mph /  3.2km/h 84% 0.00in /  0mm 21 W/m2
08:41 13.4 °F /  -10.3 °C 10.0 °F /  -12.2 °C 30.51in /  1033.1hPa Calm   1.0mph /  1.6km/h 85% 0.00in /  0mm 26 W/m2
08:56 14.3 °F /  -9.8 °C 11.0 °F /  -11.7 °C 30.51in /  1033.1hPa Calm     85% 0.00in /  0mm 125 W/m2
09:11 17.5 °F /  -8.1 °C 14.0 °F /  -10 °C 30.51in /  1033.1hPa Calm     87% 0.00in /  0mm 243 W/m2
09:26 20.6 °F /  -6.3 °C 17.0 °F /  -8.3 °C 30.51in /  1033.1hPa Calm     85% 0.00in /  0mm 272 W/m2
09:41 23.3 °F /  -4.8 °C 18.0 °F /  -7.8 °C 30.51in /  1033.1hPa Calm     80% 0.00in /  0mm 323 W/m2
09:56 26.2 °F /  -3.2 °C 20.0 °F /  -6.7 °C 30.51in /  1033.1hPa Calm     76% 0.00in /  0mm 369 W/m2
10:11 27.4 °F /  -2.6 °C 17.0 °F /  -8.3 °C 30.51in /  1033.1hPa North 1.0mph /  1.6km/h 3.0mph /  4.8km/h 66% 0.00in /  0mm 406 W/m2
10:26 26.3 °F /  -3.2 °C 17.0 °F /  -8.3 °C 30.51in /  1033.1hPa Calm   3.0mph /  4.8km/h 67% 0.00in /  0mm 448 W/m2
10:41 25.3 °F /  -3.7 °C 16.0 °F /  -8.9 °C 30.51in /  1033.1hPa North 2.0mph /  3.2km/h 4.0mph /  6.4km/h 69% 0.00in /  0mm 487 W/m2
10:56 24.7 °F /  -4.1 °C 17.0 °F /  -8.3 °C 30.51in /  1033.1hPa North 3.0mph /  4.8km/h 4.0mph /  6.4km/h 71% 0.00in /  0mm 526 W/m2
11:12 25.4 °F /  -3.7 °C 17.0 °F /  -8.3 °C 30.50in /  1032.7hPa North 2.0mph /  3.2km/h 4.0mph /  6.4km/h 70% 0.00in /  0mm 563 W/m2
11:27 26.5 °F /  -3.1 °C 19.0 °F /  -7.2 °C 30.50in /  1032.7hPa Calm   3.0mph /  4.8km/h 72% 0.00in /  0mm 598 W/m2
11:42 27.3 °F /  -2.6 °C 19.0 °F /  -7.2 °C 30.50in /  1032.7hPa NNW 3.0mph /  4.8km/h 4.0mph /  6.4km/h 71% 0.00in /  0mm 619 W/m2
11:57 27.9 °F /  -2.3 °C 19.0 °F /  -7.2 °C 30.49in /  1032.4hPa NW 2.0mph /  3.2km/h 5.0mph /  8km/h 69% 0.00in /  0mm 656 W/m2
12:12 28.5 °F /  -1.9 °C 20.0 °F /  -6.7 °C 30.49in /  1032.4hPa WNW 2.0mph /  3.2km/h 5.0mph /  8km/h 69% 0.00in /  0mm 664 W/m2
12:27 28.7 °F /  -1.8 °C 20.0 °F /  -6.7 °C 30.49in /  1032.4hPa West 2.0mph /  3.2km/h 5.0mph /  8km/h 70% 0.00in /  0mm 687 W/m2
12:42 29.1 °F /  -1.6 °C 20.0 °F /  -6.7 °C 30.48in /  1032.1hPa WSW 2.0mph /  3.2km/h 7.0mph /  11.3km/h 69% 0.00in /  0mm 721 W/m2
12:57 29.5 °F /  -1.4 °C 21.0 °F /  -6.1 °C 30.48in /  1032.1hPa SW 2.0mph /  3.2km/h 7.0mph /  11.3km/h 70% 0.00in /  0mm 677 W/m2
13:12 30.2 °F /  -1 °C 22.0 °F /  -5.6 °C 30.46in /  1031.4hPa SSW 5.0mph /  8km/h 6.0mph /  9.7km/h 70% 0.00in /  0mm 694 W/m2
13:27 31.2 °F /  -0.4 °C 22.0 °F /  -5.6 °C 30.46in /  1031.4hPa South 1.0mph /  1.6km/h 7.0mph /  11.3km/h 69% 0.00in /  0mm 722 W/m2
13:42 31.9 °F /  -0.1 °C 23.0 °F /  -5 °C 30.45in /  1031hPa SSW 3.0mph /  4.8km/h 6.0mph /  9.7km/h 69% 0.00in /  0mm 719 W/m2
13:57 32.5 °F /  0.3 °C 22.0 °F /  -5.6 °C 30.44in /  1030.7hPa SSW 3.0mph /  4.8km/h 7.0mph /  11.3km/h 66% 0.00in /  0mm 714 W/m2
14:12 32.9 °F /  0.5 °C 22.0 °F /  -5.6 °C 30.44in /  1030.7hPa SSW 3.0mph /  4.8km/h 6.0mph /  9.7km/h 64% 0.00in /  0mm 707 W/m2
14:27 33.3 °F /  0.7 °C 21.0 °F /  -6.1 °C 30.43in /  1030.4hPa SSW 4.0mph /  6.4km/h 7.0mph /  11.3km/h 62% 0.00in /  0mm 687 W/m2
14:42 33.8 °F /  1 °C 21.0 °F /  -6.1 °C 30.41in /  1029.7hPa South 5.0mph /  8km/h 8.0mph /  12.9km/h 59% 0.00in /  0mm 700 W/m2
14:57 34.4 °F /  1.3 °C 22.0 °F /  -5.6 °C 30.41in /  1029.7hPa South 2.0mph /  3.2km/h 7.0mph /  11.3km/h 60% 0.00in /  0mm 661 W/m2
15:12 34.8 °F /  1.6 °C 21.0 °F /  -6.1 °C 30.41in /  1029.7hPa SSW 5.0mph /  8km/h 8.0mph /  12.9km/h 57% 0.00in /  0mm 649 W/m2
15:27 35.4 °F /  1.9 °C 22.0 °F /  -5.6 °C 30.40in /  1029.3hPa SW 1.0mph /  1.6km/h 6.0mph /  9.7km/h 58% 0.00in /  0mm 657 W/m2
15:42 35.4 °F /  1.9 °C 22.0 °F /  -5.6 °C 30.40in /  1029.3hPa SSW 5.0mph /  8km/h 7.0mph /  11.3km/h 59% 0.00in /  0mm 598 W/m2
15:57 35.8 °F /  2.1 °C 23.0 °F /  -5 °C 30.39in /  1029hPa SSW 4.0mph /  6.4km/h 8.0mph /  12.9km/h 59% 0.00in /  0mm 573 W/m2
16:12 35.7 °F /  2.1 °C 22.0 °F /  -5.6 °C 30.38in /  1028.7hPa SSW 4.0mph /  6.4km/h 8.0mph /  12.9km/h 59% 0.00in /  0mm 482 W/m2
16:27 35.5 °F /  1.9 °C 23.0 °F /  -5 °C 30.38in /  1028.7hPa SSW 7.0mph /  11.3km/h 8.0mph /  12.9km/h 61% 0.00in /  0mm 487 W/m2
16:43 35.7 °F /  2.1 °C 23.0 °F /  -5 °C 30.37in /  1028.3hPa South 2.0mph /  3.2km/h 7.0mph /  11.3km/h 60% 0.00in /  0mm 471 W/m2
16:58 36.1 °F /  2.3 °C 23.0 °F /  -5 °C 30.36in /  1028hPa South 5.0mph /  8km/h 9.0mph /  14.5km/h 60% 0.00in /  0mm 439 W/m2
17:13 36.5 °F /  2.5 °C 24.0 °F /  -4.4 °C 30.35in /  1027.7hPa South 6.0mph /  9.7km/h 9.0mph /  14.5km/h 60% 0.00in /  0mm 330 W/m2
17:28 36.6 °F /  2.6 °C 22.0 °F /  -5.6 °C 30.34in /  1027.3hPa South 5.0mph /  8km/h 9.0mph /  14.5km/h 56% 0.00in /  0mm 311 W/m2
17:43 36.9 °F /  2.7 °C 21.0 °F /  -6.1 °C 30.34in /  1027.3hPa South 5.0mph /  8km/h 8.0mph /  12.9km/h 54% 0.00in /  0mm 285 W/m2
17:58 37.1 °F /  2.8 °C 24.0 °F /  -4.4 °C 30.33in /  1027hPa South 3.0mph /  4.8km/h 7.0mph /  11.3km/h 59% 0.00in /  0mm 251 W/m2
18:13 36.7 °F /  2.6 °C 23.0 °F /  -5 °C 30.33in /  1027hPa SSW 1.0mph /  1.6km/h 6.0mph /  9.7km/h 59% 0.00in /  0mm 86 W/m2
18:28 36.4 °F /  2.4 °C 24.0 °F /  -4.4 °C 30.33in /  1027hPa SSW 5.0mph /  8km/h 7.0mph /  11.3km/h 61% 0.00in /  0mm 74 W/m2
18:43 35.8 °F /  2.1 °C 25.0 °F /  -3.9 °C 30.32in /  1026.6hPa SSW 3.0mph /  4.8km/h 6.0mph /  9.7km/h 64% 0.00in /  0mm 62 W/m2
18:58 35.3 °F /  1.8 °C 25.0 °F /  -3.9 °C 30.32in /  1026.6hPa SSW 5.0mph /  8km/h 8.0mph /  12.9km/h 67% 0.00in /  0mm 40 W/m2
19:13 34.7 °F /  1.5 °C 25.0 °F /  -3.9 °C 30.30in /  1026hPa SSW 4.0mph /  6.4km/h 6.0mph /  9.7km/h 69% 0.00in /  0mm 30 W/m2
19:28 33.8 °F /  1 °C 25.0 °F /  -3.9 °C 30.30in /  1026hPa SSW 4.0mph /  6.4km/h 7.0mph /  11.3km/h 70% 0.00in /  0mm 14 W/m2
19:43 33.1 °F /  0.6 °C 25.0 °F /  -3.9 °C 30.30in /  1026hPa SSW 2.0mph /  3.2km/h 6.0mph /  9.7km/h 71% 0.00in /  0mm 7 W/m2
19:58 32.6 °F /  0.3 °C 25.0 °F /  -3.9 °C 30.29in /  1025.6hPa SSW 1.0mph /  1.6km/h 8.0mph /  12.9km/h 73% 0.00in /  0mm 0 W/m2
20:13 31.9 °F /  -0.1 °C 25.0 °F /  -3.9 °C 30.28in /  1025.3hPa SSW 2.0mph /  3.2km/h 6.0mph /  9.7km/h 75% 0.00in /  0mm 0 W/m2
20:28 31.6 °F /  -0.2 °C 25.0 °F /  -3.9 °C 30.27in /  1024.9hPa SSW 2.0mph /  3.2km/h 5.0mph /  8km/h 75% 0.00in /  0mm 0 W/m2
20:43 31.2 °F /  -0.4 °C 24.0 °F /  -4.4 °C 30.27in /  1024.9hPa Calm   5.0mph /  8km/h 76% 0.00in /  0mm 0 W/m2
20:58 30.9 °F /  -0.6 °C 25.0 °F /  -3.9 °C 30.26in /  1024.6hPa SSW 3.0mph /  4.8km/h 4.0mph /  6.4km/h 77% 0.00in /  0mm 0 W/m2
21:13 30.8 °F /  -0.7 °C 24.0 °F /  -4.4 °C 30.25in /  1024.3hPa SSW 1.0mph /  1.6km/h 5.0mph /  8km/h 76% 0.00in /  0mm 0 W/m2
21:28 30.6 °F /  -0.8 °C 24.0 °F /  -4.4 °C 30.25in /  1024.3hPa South 3.0mph /  4.8km/h 5.0mph /  8km/h 76% 0.00in /  0mm 0 W/m2
21:43 30.4 °F /  -0.9 °C 24.0 °F /  -4.4 °C 30.25in /  1024.3hPa South 3.0mph /  4.8km/h 5.0mph /  8km/h 77% 0.00in /  0mm 0 W/m2
21:58 30.4 °F /  -0.9 °C 24.0 °F /  -4.4 °C 30.24in /  1023.9hPa South 4.0mph /  6.4km/h 6.0mph /  9.7km/h 77% 0.00in /  0mm 0 W/m2
22:13 30.2 °F /  -1 °C 24.0 °F /  -4.4 °C 30.23in /  1023.6hPa South 3.0mph /  4.8km/h 6.0mph /  9.7km/h 78% 0.00in /  0mm 0 W/m2
22:28 29.9 °F /  -1.2 °C 24.0 °F /  -4.4 °C 30.23in /  1023.6hPa South 1.0mph /  1.6km/h 4.0mph /  6.4km/h 78% 0.00in /  0mm 0 W/m2
22:43 29.8 °F /  -1.2 °C 24.0 °F /  -4.4 °C 30.22in /  1023.2hPa South 2.0mph /  3.2km/h 6.0mph /  9.7km/h 79% 0.00in /  0mm 0 W/m2
22:58 30.0 °F /  -1.1 °C 25.0 °F /  -3.9 °C 30.22in /  1023.2hPa South 1.0mph /  1.6km/h 5.0mph /  8km/h 80% 0.00in /  0mm 0 W/m2
23:13 29.6 °F /  -1.3 °C 24.0 °F /  -4.4 °C 30.21in /  1022.9hPa South 1.0mph /  1.6km/h 5.0mph /  8km/h 80% 0.00in /  0mm 0 W/m2
23:28 29.5 °F /  -1.4 °C 24.0 °F /  -4.4 °C 30.20in /  1022.6hPa South 3.0mph /  4.8km/h 4.0mph /  6.4km/h 80% 0.00in /  0mm 0 W/m2
23:43 29.9 °F /  -1.2 °C 25.0 °F /  -3.9 °C 30.20in /  1022.6hPa SSW 6.0mph /  9.7km/h 10.0mph /  16.1km/h 81% 0.00in /  0mm 0 W/m2
23:58 29.8 °F /  -1.2 °C 24.0 °F /  -4.4 °C 30.18in /  1021.9hPa SW 6.0mph /  9.7km/h 9.0mph /  14.5km/h 80% 0.00in /  0mm 0 W/m2